createdAt,value
2022-11-28T00:01:43.729Z,101062.66
2022-11-28T00:04:14.564Z,101063.47
2022-11-28T00:06:46.061Z,101069.50
2022-11-28T00:09:15.448Z,101066.16
2022-11-28T00:11:45.370Z,101070.06
2022-11-28T00:14:15.912Z,101072.94
2022-11-28T00:16:43.528Z,101079.97
2022-11-28T00:19:14.539Z,101072.56
2022-11-28T00:21:44.716Z,101075.72
2022-11-28T00:24:14.393Z,101074.69
2022-11-28T00:26:42.981Z,101069.69
2022-11-28T00:29:10.990Z,101069.31
2022-11-28T00:31:43.829Z,101068.03
2022-11-28T00:34:16.545Z,101073.50
2022-11-28T00:36:46.881Z,101075.72
2022-11-28T00:39:15.878Z,101070.53
2022-11-28T00:41:44.040Z,101075.34
2022-11-28T00:44:14.664Z,101072.66
2022-11-28T00:46:44.565Z,101074.31
2022-11-28T00:49:12.051Z,101072.66
2022-11-28T00:51:39.739Z,101076.00
2022-11-28T00:54:09.968Z,101075.16
2022-11-28T00:56:41.868Z,101079.69
2022-11-28T00:59:09.647Z,101074.31
2022-11-28T01:01:41.058Z,101068.09
2022-11-28T01:04:10.820Z,101077.66
2022-11-28T01:06:41.799Z,101077.31
2022-11-28T01:09:14.976Z,101074.78
2022-11-28T01:11:43.689Z,101082.69
2022-11-28T01:14:14.523Z,101076.44
2022-11-28T01:16:42.088Z,101068.56
2022-11-28T01:19:13.902Z,101068.09
2022-11-28T01:21:41.923Z,101067.28
2022-11-28T01:24:09.898Z,101070.97
2022-11-28T01:26:39.808Z,101060.22
2022-11-28T01:29:07.846Z,101067.66
2022-11-28T01:31:37.756Z,101063.28
2022-11-28T01:34:05.626Z,101058.09
2022-11-28T01:36:33.150Z,101058.94
2022-11-28T01:39:00.736Z,101059.97
2022-11-28T01:41:29.666Z,101062.66
2022-11-28T01:44:03.559Z,101060.16
2022-11-28T01:46:32.142Z,101056.63
2022-11-28T01:49:06.716Z,101054.78
2022-11-28T01:51:37.368Z,101045.50
2022-11-28T01:54:07.729Z,101037.63
2022-11-28T01:56:51.289Z,101030.78
2022-11-28T01:59:20.665Z,101027.06
2022-11-28T02:01:48.410Z,101028.09
2022-11-28T02:04:16.209Z,101027.06
2022-11-28T02:06:44.092Z,101019.00
2022-11-28T02:09:17.108Z,101019.00
2022-11-28T02:12:05.005Z,101018.81
2022-11-28T02:14:51.201Z,101018.81
2022-11-28T02:17:27.586Z,101012.78
2022-11-28T02:20:36.428Z,101008.44
2022-11-28T02:23:09.965Z,101006.78
2022-11-28T02:25:40.178Z,101005.94
2022-11-28T02:28:22.725Z,101005.94
2022-11-28T02:31:27.122Z,101012.16
2022-11-28T02:33:58.075Z,101004.28
2022-11-28T02:36:30.647Z,101001.97
2022-11-28T02:39:15.606Z,100999.09
2022-11-28T02:42:02.236Z,100997.22
2022-11-28T02:45:01.861Z,100998.25
2022-11-28T02:47:43.546Z,100995.56
2022-11-28T02:50:26.044Z,100996.97
2022-11-28T02:53:00.520Z,100993.97
2022-11-28T02:55:28.749Z,100991.84
2022-11-28T02:57:56.814Z,100970.84
2022-11-28T03:00:27.991Z,100991.56
2022-11-28T03:03:19.786Z,100979.16
2022-11-28T03:05:58.306Z,100983.06
2022-11-28T03:08:36.993Z,100988.44
2022-11-28T03:11:22.617Z,100977.69
2022-11-28T03:13:58.588Z,100979.34
2022-11-28T03:16:52.301Z,100975.00
2022-11-28T03:19:34.335Z,100978.16
2022-11-28T03:22:04.628Z,100971.28
2022-11-28T03:24:45.448Z,100976.94
2022-11-28T03:27:20.135Z,100979.25
2022-11-28T03:29:53.549Z,100969.16
2022-11-28T03:32:30.532Z,100962.75
2022-11-28T03:35:04.917Z,100960.72
2022-11-28T03:37:36.660Z,100955.81
2022-11-28T03:40:22.860Z,100953.28
2022-11-28T03:42:58.109Z,100946.25
2022-11-28T03:45:32.840Z,100942.72
2022-11-28T03:48:10.144Z,100938.19
2022-11-28T03:50:50.993Z,100936.34
2022-11-28T03:53:26.498Z,100935.16
2022-11-28T03:56:03.026Z,100931.97
2022-11-28T03:59:08.027Z,100919.13
2022-11-28T04:01:57.658Z,100928.78
2022-11-28T04:04:44.401Z,100918.22
2022-11-28T04:07:24.060Z,100915.72
2022-11-28T04:10:14.377Z,100921.66
2022-11-28T04:12:53.876Z,100914.25
2022-11-28T04:15:34.487Z,100915.91
2022-11-28T04:18:18.556Z,100913.78
2022-11-28T04:20:52.744Z,100906.94
2022-11-28T04:23:25.667Z,100913.31
2022-11-28T04:26:19.388Z,100905.91
2022-11-28T04:28:52.010Z,100899.91
2022-11-28T04:31:22.510Z,100905.72
2022-11-28T04:33:58.387Z,100907.19
2022-11-28T04:36:27.988Z,100899.13
2022-11-28T04:38:58.340Z,100902.00
2022-11-28T04:41:43.656Z,100901.00
2022-11-28T04:44:20.934Z,100902.84
2022-11-28T04:46:54.519Z,100902.84
2022-11-28T04:49:24.021Z,100903.22
2022-11-28T04:52:12.182Z,100902.59
2022-11-28T04:55:04.424Z,100896.72
2022-11-28T04:57:45.940Z,100899.22
2022-11-28T05:00:20.328Z,100893.00
2022-11-28T05:02:52.676Z,100897.41
2022-11-28T05:05:23.654Z,100891.84
2022-11-28T05:07:51.308Z,100896.38
2022-11-28T05:10:22.060Z,100898.03
2022-11-28T05:12:50.778Z,100887.50
2022-11-28T05:15:19.311Z,100892.47
2022-11-28T05:17:48.659Z,100907.13
2022-11-28T05:20:16.300Z,100901.75
2022-11-28T05:22:46.247Z,100906.81
2022-11-28T05:25:16.363Z,100896.62
2022-11-28T05:27:45.227Z,100901.81
2022-11-28T05:30:13.564Z,100900.34
2022-11-28T05:32:41.148Z,100908.59
2022-11-28T05:35:09.077Z,100907.13
2022-11-28T05:37:39.249Z,100902.94
2022-11-28T05:40:15.069Z,100913.50
2022-11-28T05:42:45.607Z,100922.22
2022-11-28T05:45:13.115Z,100923.88
2022-11-28T05:47:40.634Z,100928.87
2022-11-28T05:50:09.072Z,100929.50
2022-11-28T05:52:36.888Z,100932.84
2022-11-28T05:55:07.430Z,100927.47
2022-11-28T05:57:35.047Z,100933.88
2022-11-28T06:00:03.904Z,100929.13
2022-11-28T06:02:33.787Z,100930.53
2022-11-28T06:05:20.939Z,100925.16
2022-11-28T06:07:54.229Z,100924.06
2022-11-28T06:10:22.596Z,100921.75
2022-11-28T06:12:51.168Z,100916.75
2022-11-28T06:15:18.721Z,100920.28
2022-11-28T06:17:46.267Z,100923.78
2022-11-28T06:20:15.204Z,100926.94
2022-11-28T06:22:43.664Z,100931.66
2022-11-28T06:25:11.226Z,100937.03
2022-11-28T06:27:38.791Z,100929.63
2022-11-28T06:30:08.061Z,100926.94
2022-11-28T06:32:35.602Z,100925.53
2022-11-28T06:35:05.590Z,100924.78
2022-11-28T06:37:33.282Z,100932.37
2022-11-28T06:40:00.778Z,100930.53
2022-11-28T06:42:28.299Z,100933.78
2022-11-28T06:44:58.189Z,100937.66
2022-11-28T06:47:25.812Z,100930.81
2022-11-28T06:49:55.533Z,100939.06
2022-11-28T06:52:25.703Z,100937.84
2022-11-28T06:54:53.254Z,100940.34
2022-11-28T06:57:21.166Z,100942.03
2022-11-28T06:59:50.548Z,100937.84
2022-11-28T07:02:18.121Z,100940.34
2022-11-28T07:04:45.930Z,100943.59
2022-11-28T07:07:16.728Z,100944.81
2022-11-28T07:09:45.058Z,100944.44
2022-11-28T07:12:12.826Z,100942.41
2022-11-28T07:14:40.385Z,100948.13
2022-11-28T07:17:08.083Z,100944.72
2022-11-28T07:19:35.741Z,100944.34
2022-11-28T07:22:04.373Z,100937.03
2022-11-28T07:24:32.007Z,100939.06
2022-11-28T07:26:59.584Z,100941.75
2022-11-28T07:29:31.389Z,100943.22
2022-11-28T07:31:59.025Z,100942.84
2022-11-28T07:34:26.552Z,100951.09
2022-11-28T07:36:54.134Z,100943.59
2022-11-28T07:39:23.340Z,100944.91
2022-11-28T07:41:51.744Z,100942.41
2022-11-28T07:44:21.793Z,100945.72
2022-11-28T07:46:49.394Z,100934.34
2022-11-28T07:49:17.134Z,100937.22
2022-11-28T07:51:49.874Z,100935.63
2022-11-28T07:54:17.482Z,100929.88
2022-11-28T07:57:11.914Z,100922.84
2022-11-28T07:59:32.773Z,100916.19
2022-11-28T08:02:00.515Z,100919.16
2022-11-28T08:04:28.220Z,100911.09
2022-11-28T08:06:58.178Z,100918.22
2022-11-28T08:09:28.588Z,100913.50
2022-11-28T08:11:56.347Z,100915.00
2022-11-28T08:14:24.274Z,100918.59
2022-11-28T08:16:52.444Z,100915.34
2022-11-28T08:19:24.507Z,100911.25
2022-11-28T08:21:52.522Z,100911.69
2022-11-28T08:24:24.942Z,100911.69
2022-11-28T08:26:52.527Z,100917.63
2022-11-28T08:29:22.197Z,100926.16
2022-11-28T08:31:49.681Z,100919.94
2022-11-28T08:34:17.228Z,100926.97
2022-11-28T08:36:45.101Z,100926.97
2022-11-28T08:39:28.022Z,100935.22
2022-11-28T08:41:57.724Z,100940.53
2022-11-28T08:44:25.642Z,100942.53
2022-11-28T08:46:53.715Z,100942.19
2022-11-28T08:49:21.570Z,100938.50
2022-11-28T08:51:49.198Z,100936.00
2022-11-28T08:54:16.739Z,100929.09
2022-11-28T08:56:45.297Z,100940.41
2022-11-28T08:59:12.880Z,100936.72
2022-11-28T09:01:40.607Z,100932.72
2022-11-28T09:04:08.296Z,100923.66
2022-11-28T09:06:36.784Z,100930.56
2022-11-28T09:09:04.546Z,100929.94
2022-11-28T09:11:32.360Z,100932.03
2022-11-28T09:14:03.585Z,100924.19
2022-11-28T09:16:31.245Z,100924.72
2022-11-28T09:19:02.519Z,100919.06
2022-11-28T09:21:30.122Z,100918.72
2022-11-28T09:23:57.714Z,100917.00
2022-11-28T09:26:26.397Z,100916.22
2022-11-28T09:28:54.952Z,100912.34
2022-11-28T09:31:22.821Z,100914.38
2022-11-28T09:33:50.547Z,100907.59
2022-11-28T09:36:22.034Z,100914.13
2022-11-28T09:38:49.902Z,100911.63
2022-11-28T09:41:33.501Z,100915.16
2022-11-28T09:44:07.962Z,100900.44
2022-11-28T09:46:37.775Z,100896.72
2022-11-28T09:49:18.927Z,100913.09
2022-11-28T09:51:58.978Z,100898.94
2022-11-28T09:54:44.782Z,100901.37
2022-11-28T09:57:19.887Z,100892.84
2022-11-28T09:59:47.594Z,100892.09
2022-11-28T10:02:15.131Z,100878.47
2022-11-28T10:04:44.051Z,100879.88
2022-11-28T10:07:31.863Z,100874.50
2022-11-28T10:10:36.389Z,100876.69
2022-11-28T10:13:21.998Z,100882.78
2022-11-28T10:16:07.519Z,100872.62
2022-11-28T10:18:55.105Z,100882.16
2022-11-28T10:21:43.214Z,100878.25
2022-11-28T10:24:22.415Z,100874.84
2022-11-28T10:26:58.903Z,100873.72
2022-11-28T10:29:48.094Z,100872.53
2022-11-28T10:32:19.462Z,100870.13
2022-11-28T10:35:06.865Z,100862.69
2022-11-28T10:37:39.494Z,100855.72
2022-11-28T10:40:19.171Z,100832.19
2022-11-28T10:42:54.938Z,100852.69
2022-11-28T10:45:29.422Z,100850.44
2022-11-28T10:48:41.057Z,100850.75
2022-11-28T10:51:46.516Z,100847.37
2022-11-28T10:54:43.360Z,100837.84
2022-11-28T10:57:18.587Z,100837.28
2022-11-28T10:59:48.857Z,100835.81
2022-11-28T11:02:42.380Z,100827.81
2022-11-28T11:05:16.247Z,100822.28
2022-11-28T11:07:57.062Z,100820.75
2022-11-28T11:10:31.297Z,100820.75
2022-11-28T11:12:59.845Z,100827.41
2022-11-28T11:15:33.548Z,100819.03
2022-11-28T11:18:05.836Z,100821.53
2022-11-28T11:20:39.471Z,100825.81
2022-11-28T11:23:14.863Z,100814.06
2022-11-28T11:25:53.188Z,100819.59
2022-11-28T11:28:33.337Z,100820.56
2022-11-28T11:31:03.782Z,100829.00
2022-11-28T11:33:38.823Z,100816.94
2022-11-28T11:36:33.229Z,100824.59
2022-11-28T11:39:13.411Z,100810.41
2022-11-28T11:41:46.764Z,100815.12
2022-11-28T11:44:20.477Z,100803.09
2022-11-28T11:46:54.979Z,100810.97
2022-11-28T11:49:49.974Z,100816.63
2022-11-28T11:52:26.645Z,100820.16
2022-11-28T11:55:12.872Z,100816.00
2022-11-28T11:57:53.883Z,100807.75
2022-11-28T12:00:28.879Z,100807.38
2022-11-28T12:03:01.059Z,100794.13
2022-11-28T12:05:41.820Z,100802.09
2022-11-28T12:08:34.455Z,100799.00
2022-11-28T12:11:15.629Z,100795.94
2022-11-28T12:13:45.729Z,100802.59
2022-11-28T12:16:31.973Z,100799.75
2022-11-28T12:19:28.292Z,100792.22
2022-11-28T12:22:14.280Z,100781.31
2022-11-28T12:25:03.756Z,100794.28
2022-11-28T12:27:31.251Z,100791.78
2022-11-28T12:30:22.594Z,100789.28
2022-11-28T12:33:08.454Z,100779.22
2022-11-28T12:35:43.425Z,100775.66
2022-11-28T12:38:13.830Z,100775.66
2022-11-28T12:41:16.622Z,100775.38
2022-11-28T12:44:04.858Z,100772.13
2022-11-28T12:46:58.740Z,100770.41
2022-11-28T12:49:29.253Z,100765.72
2022-11-28T12:51:56.745Z,100767.81
2022-11-28T12:54:53.558Z,100767.69
2022-11-28T12:57:39.588Z,100765.81
2022-11-28T13:00:15.148Z,100761.03
2022-11-28T13:03:11.909Z,100756.50
2022-11-28T13:05:58.214Z,100760.84
2022-11-28T13:08:56.999Z,100757.53
2022-11-28T13:11:49.627Z,100751.50
2022-11-28T13:14:33.178Z,100756.28
2022-11-28T13:17:19.291Z,100749.69
2022-11-28T13:20:20.984Z,100750.75
2022-11-28T13:23:16.297Z,100752.91
2022-11-28T13:26:02.504Z,100748.53
2022-11-28T13:28:46.092Z,100750.03
2022-11-28T13:31:34.380Z,100744.81
2022-11-28T13:34:05.214Z,100745.78
2022-11-28T13:39:37.229Z,100739.38
2022-11-28T13:45:34.117Z,100748.03
2022-11-28T13:51:34.578Z,100752.34
2022-11-28T13:54:20.709Z,100746.97
2022-11-28T13:57:14.254Z,100740.94
2022-11-28T13:59:47.617Z,100747.41
2022-11-28T14:02:37.860Z,100740.78
2022-11-28T14:05:18.745Z,100743.84
2022-11-28T14:07:51.379Z,100739.34
2022-11-28T14:10:27.949Z,100735.19
2022-11-28T14:13:04.960Z,100734.38
2022-11-28T14:15:39.028Z,100737.31
2022-11-28T14:18:55.153Z,100733.53
2022-11-28T14:21:43.778Z,100729.34
2022-11-28T14:24:26.356Z,100726.84
2022-11-28T14:27:05.775Z,100739.44
2022-11-28T14:29:44.997Z,100741.03
2022-11-28T14:32:30.687Z,100736.03
2022-11-28T14:34:58.898Z,100727.09
2022-11-28T14:37:30.104Z,100733.28
2022-11-28T14:39:59.022Z,100728.94
2022-11-28T14:45:44.566Z,100725.56
2022-11-28T14:48:19.796Z,100729.19
2022-11-28T14:51:01.336Z,100725.59
2022-11-28T14:53:44.606Z,100724.72
2022-11-28T14:56:34.930Z,100725.28
2022-11-28T14:59:06.320Z,100721.66
2022-11-28T15:01:57.643Z,100727.63
2022-11-28T15:04:35.894Z,100722.38
2022-11-28T15:07:05.169Z,100722.94
2022-11-28T15:09:54.309Z,100724.72
2022-11-28T15:12:27.139Z,100727.47
2022-11-28T15:14:58.821Z,100730.09
2022-11-28T15:17:30.726Z,100733.72
2022-11-28T15:20:05.024Z,100729.25
2022-11-28T15:22:34.752Z,100736.84
2022-11-28T15:25:04.723Z,100737.41
2022-11-28T15:27:32.231Z,100733.62
2022-11-28T15:30:03.733Z,100738.25
2022-11-28T15:32:32.931Z,100732.31
2022-11-28T15:35:07.765Z,100737.47
2022-11-28T15:37:49.221Z,100737.38
2022-11-28T15:40:33.545Z,100734.88
2022-11-28T15:43:12.491Z,100742.47
2022-11-28T15:45:42.280Z,100742.00
2022-11-28T15:48:27.469Z,100743.66
2022-11-28T15:50:55.747Z,100750.03
2022-11-28T15:53:23.386Z,100745.53
2022-11-28T15:56:14.595Z,100750.22
2022-11-28T15:58:44.288Z,100751.25
2022-11-28T16:01:30.322Z,100750.56
2022-11-28T16:04:11.719Z,100750.47
2022-11-28T16:06:43.567Z,100754.44
2022-11-28T16:09:20.261Z,100757.06
2022-11-28T16:11:50.777Z,100755.87
2022-11-28T16:14:35.614Z,100753.00
2022-11-28T16:17:19.345Z,100748.94
2022-11-28T16:19:50.205Z,100763.63
2022-11-28T16:22:22.865Z,100752.53
2022-11-28T16:24:56.868Z,100761.59
2022-11-28T16:27:39.436Z,100763.56
2022-11-28T16:30:26.951Z,100760.53
2022-11-28T16:32:58.357Z,100758.50
2022-11-28T16:35:47.503Z,100756.66
2022-11-28T16:38:24.954Z,100748.41
2022-11-28T16:41:00.133Z,100758.97
2022-11-28T16:43:40.247Z,100753.47
2022-11-28T16:46:18.647Z,100743.66
2022-11-28T16:48:54.775Z,100758.09
2022-11-28T16:51:33.912Z,100757.62
2022-11-28T16:54:23.540Z,100752.53
2022-11-28T16:56:51.158Z,100756.09
2022-11-28T16:59:21.357Z,100759.25
2022-11-28T17:01:55.097Z,100753.78
2022-11-28T17:04:26.596Z,100757.28
2022-11-28T17:06:56.715Z,100747.88
2022-11-28T17:09:24.478Z,100752.88
2022-11-28T17:11:58.502Z,100761.84
2022-11-28T17:14:26.176Z,100761.66
2022-11-28T17:16:55.997Z,100754.81
2022-11-28T17:19:23.578Z,100759.59
2022-11-28T17:21:57.725Z,100756.31
2022-11-28T17:24:28.176Z,100756.41
2022-11-28T17:26:56.545Z,100751.47
2022-11-28T17:29:25.323Z,100759.53
2022-11-28T17:31:55.571Z,100760.62
2022-11-28T17:34:25.842Z,100756.53
2022-11-28T17:36:53.470Z,100756.69
2022-11-28T17:39:22.099Z,100762.44
2022-11-28T17:41:50.075Z,100761.47
2022-11-28T17:44:20.660Z,100767.72
2022-11-28T17:46:48.860Z,100768.56
2022-11-28T17:49:16.935Z,100766.41
2022-11-28T17:51:44.965Z,100770.09
2022-11-28T17:54:16.288Z,100769.28
2022-11-28T17:56:48.409Z,100765.59
2022-11-28T17:59:20.922Z,100765.87
2022-11-28T18:01:49.559Z,100753.34
2022-11-28T18:04:17.444Z,100763.03
2022-11-28T18:06:46.610Z,100757.88
2022-11-28T18:09:14.989Z,100767.22
2022-11-28T18:11:43.392Z,100770.38
2022-11-28T18:14:11.355Z,100763.84
2022-11-28T18:16:40.130Z,100778.66
2022-11-28T18:19:08.236Z,100768.25
2022-11-28T18:21:36.111Z,100772.06
2022-11-28T18:24:06.289Z,100774.72
2022-11-28T18:26:34.049Z,100769.31
2022-11-28T18:29:01.712Z,100773.66
2022-11-28T18:31:31.597Z,100769.97
2022-11-28T18:34:04.548Z,100778.16
2022-11-28T18:36:35.309Z,100774.31
2022-11-28T18:39:07.627Z,100765.97
2022-11-28T18:41:35.531Z,100760.97
2022-11-28T18:44:07.903Z,100760.62
2022-11-28T18:46:36.088Z,100775.66
2022-11-28T18:49:05.453Z,100763.00
2022-11-28T18:51:35.576Z,100768.53
2022-11-28T18:54:06.017Z,100770.03
2022-11-28T18:56:34.028Z,100773.72
2022-11-28T18:59:01.686Z,100774.38
2022-11-28T19:01:31.487Z,100775.56
2022-11-28T19:04:03.891Z,100774.00
2022-11-28T19:06:35.085Z,100770.31
2022-11-28T19:09:05.046Z,100767.16
2022-11-28T19:11:35.671Z,100729.50
2022-11-28T19:14:04.557Z,100759.31
2022-11-28T19:16:35.113Z,100763.84
2022-11-28T19:19:04.053Z,100762.66
2022-11-28T19:21:34.762Z,100768.34
2022-11-28T19:24:03.146Z,100770.03
2022-11-28T19:26:33.501Z,100760.97
2022-11-28T19:29:03.887Z,100759.78
2022-11-28T19:31:33.423Z,100756.63
2022-11-28T19:34:07.544Z,100761.63
2022-11-28T19:36:41.058Z,100764.31
2022-11-28T19:39:12.970Z,100769.13
2022-11-28T19:41:42.698Z,100777.81
2022-11-28T19:44:13.952Z,100770.91
2022-11-28T19:46:42.335Z,100771.41
2022-11-28T19:49:17.403Z,100778.25
2022-11-28T19:51:45.264Z,100775.41
2022-11-28T19:54:14.147Z,100776.59
2022-11-28T19:56:41.824Z,100774.28
2022-11-28T19:59:09.470Z,100772.09
2022-11-28T20:01:39.482Z,100769.25
2022-11-28T20:04:09.813Z,100777.78
2022-11-28T20:06:39.402Z,100767.22
2022-11-28T20:09:10.367Z,100765.56
2022-11-28T20:11:38.597Z,100772.75
2022-11-28T20:14:12.263Z,100772.53
2022-11-28T20:16:39.815Z,100772.69
2022-11-28T20:19:10.934Z,100771.16
2022-11-28T20:21:39.089Z,100770.69
2022-11-28T20:24:08.294Z,100737.28
2022-11-28T20:26:42.351Z,100774.66
2022-11-28T20:29:12.624Z,100766.16
2022-11-28T20:31:45.351Z,100773.00
2022-11-28T20:34:17.446Z,100776.69
2022-11-28T20:36:45.267Z,100775.19
2022-11-28T20:39:15.873Z,100773.00
2022-11-28T20:41:45.557Z,100775.97
2022-11-28T20:44:15.290Z,100774.78
2022-11-28T20:46:44.065Z,100767.56
2022-11-28T20:49:15.662Z,100769.37
2022-11-28T20:51:43.453Z,100764.31
2022-11-28T20:54:12.981Z,100770.31
2022-11-28T20:57:12.936Z,100769.59
2022-11-28T20:59:30.595Z,100774.38
2022-11-28T21:01:58.221Z,100765.63
2022-11-28T21:04:25.901Z,100771.16
2022-11-28T21:06:53.493Z,100770.13
2022-11-28T21:09:21.018Z,100778.34
2022-11-28T21:11:58.590Z,100779.00
2022-11-28T21:14:29.404Z,100779.34
2022-11-28T21:17:05.700Z,100784.41
2022-11-28T21:19:33.243Z,100785.56
2022-11-28T21:22:03.964Z,100783.22
2022-11-28T21:24:31.535Z,100787.09
2022-11-28T21:26:59.064Z,100778.22
2022-11-28T21:29:26.638Z,100776.03
2022-11-28T21:31:54.563Z,100781.22
2022-11-28T21:34:22.907Z,100785.91
2022-11-28T21:36:51.024Z,100785.06
2022-11-28T21:39:23.304Z,100782.50
2022-11-28T21:41:53.083Z,100787.41
2022-11-28T21:44:23.015Z,100778.06
2022-11-28T21:46:50.574Z,100783.34
2022-11-28T21:49:19.332Z,100775.31
2022-11-28T21:51:49.527Z,100778.81
2022-11-28T21:54:17.088Z,100776.97
2022-11-28T21:56:44.670Z,100777.62
2022-11-28T21:59:14.258Z,100781.28
2022-11-28T22:01:47.119Z,100778.78
2022-11-28T22:04:14.674Z,100779.91
2022-11-28T22:06:48.067Z,100779.56
2022-11-28T22:09:15.606Z,100772.00
2022-11-28T22:11:43.194Z,100776.53
2022-11-28T22:14:15.557Z,100771.88
2022-11-28T22:16:43.332Z,100779.19
2022-11-28T22:19:11.067Z,100775.22
2022-11-28T22:21:56.883Z,100774.19
2022-11-28T22:24:24.761Z,100778.00
2022-11-28T22:26:52.388Z,100775.03
2022-11-28T22:29:22.421Z,100781.22
2022-11-28T22:31:52.591Z,100727.59
2022-11-28T22:34:20.302Z,100771.91
2022-11-28T22:36:47.909Z,100768.91
2022-11-28T22:39:15.524Z,100771.91
2022-11-28T22:41:43.208Z,100780.31
2022-11-28T22:44:11.785Z,100773.28
2022-11-28T22:46:39.537Z,100773.66
2022-11-28T22:49:10.372Z,100773.19
2022-11-28T22:51:38.638Z,100771.09
2022-11-28T22:54:06.425Z,100768.75
2022-11-28T22:56:36.245Z,100768.25
2022-11-28T22:59:08.272Z,100773.13
2022-11-28T23:01:35.821Z,100777.66
2022-11-28T23:04:06.459Z,100787.47
2022-11-28T23:06:35.694Z,100783.97
2022-11-28T23:09:06.577Z,100771.12
2022-11-28T23:11:38.797Z,100763.63
2022-11-28T23:14:07.720Z,100783.38
2022-11-28T23:16:37.613Z,100772.00
2022-11-28T23:19:11.278Z,100776.81
2022-11-28T23:21:42.637Z,100778.31
2022-11-28T23:24:16.338Z,100774.69
2022-11-28T23:26:43.883Z,100777.19
2022-11-28T23:29:11.501Z,100777.19
2022-11-28T23:31:41.883Z,100782.53
2022-11-28T23:34:12.263Z,100783.25
2022-11-28T23:36:44.910Z,100781.94
2022-11-28T23:39:25.522Z,100777.47
2022-11-28T23:41:53.433Z,100781.59
2022-11-28T23:44:21.387Z,100777.25
2022-11-28T23:46:49.402Z,100777.22
2022-11-28T23:49:16.940Z,100772.91
2022-11-28T23:51:44.552Z,100767.91
2022-11-28T23:54:13.089Z,100771.63
2022-11-28T23:56:44.952Z,100769.31
2022-11-28T23:59:13.451Z,100765.94
